sensor_id;sensor_type;location;lat;lon;timestamp;pressure;altitude;pressure_sealevel;temperature;humidity
68758;BME280;55747;51.998;4.466;2023-05-10T00:00:26;56723.88;;;-144.48;100.00
68758;BME280;55747;51.998;4.466;2023-05-10T00:02:51;56750.75;;;-144.48;100.00
68758;BME280;55747;51.998;4.466;2023-05-10T00:05:16;56723.88;;;-144.48;100.00
68758;BME280;55747;51.998;4.466;2023-05-10T00:07:42;56711.47;;;-144.48;100.00
68758;BME280;55747;51.998;4.466;2023-05-10T00:10:09;56723.88;;;-144.48;100.00
68758;BME280;55747;51.998;4.466;2023-05-10T00:12:35;56709.41;;;-144.48;100.00
68758;BME280;55747;51.998;4.466;2023-05-10T00:15:00;56754.91;;;-144.48;100.00
68758;BME280;55747;51.998;4.466;2023-05-10T00:17:25;56779.72;;;-144.48;100.00
68758;BME280;55747;51.998;4.466;2023-05-10T00:19:50;56732.16;;;-144.48;100.00
68758;BME280;55747;51.998;4.466;2023-05-10T00:22:15;56740.41;;;-144.48;100.00
68758;BME280;55747;51.998;4.466;2023-05-10T00:24:41;56752.81;;;-144.48;100.00
68758;BME280;55747;51.998;4.466;2023-05-10T00:27:06;56699.06;;;-144.48;100.00
68758;BME280;55747;51.998;4.466;2023-05-10T00:29:31;56748.69;;;-144.48;100.00
68758;BME280;55747;51.998;4.466;2023-05-10T00:31:58;56713.53;;;-144.48;100.00
68758;BME280;55747;51.998;4.466;2023-05-10T00:34:23;56736.28;;;-144.48;100.00
68758;BME280;55747;51.998;4.466;2023-05-10T00:36:49;56744.56;;;-144.48;100.00
68758;BME280;55747;51.998;4.466;2023-05-10T00:39:14;56719.75;;;-144.48;100.00
68758;BME280;55747;51.998;4.466;2023-05-10T00:41:40;56728.00;;;-144.48;100.00
68758;BME280;55747;51.998;4.466;2023-05-10T00:44:05;56730.09;;;-144.48;100.00
68758;BME280;55747;51.998;4.466;2023-05-10T00:46:30;56728.00;;;-144.48;100.00
68758;BME280;55747;51.998;4.466;2023-05-10T00:48:56;56754.91;;;-144.48;100.00
68758;BME280;55747;51.998;4.466;2023-05-10T00:51:21;56740.41;;;-144.48;100.00
68758;BME280;55747;51.998;4.466;2023-05-10T00:53:47;56717.69;;;-144.48;100.00
68758;BME280;55747;51.998;4.466;2023-05-10T00:56:13;56742.50;;;-144.48;100.00
68758;BME280;55747;51.998;4.466;2023-05-10T00:58:39;56732.16;;;-144.48;100.00
68758;BME280;55747;51.998;4.466;2023-05-10T01:01:04;56756.97;;;-144.48;100.00
68758;BME280;55747;51.998;4.466;2023-05-10T01:03:29;56721.81;;;-144.48;100.00
68758;BME280;55747;51.998;4.466;2023-05-10T01:05:55;56748.69;;;-144.48;100.00
68758;BME280;55747;51.998;4.466;2023-05-10T01:08:20;56732.16;;;-144.48;100.00
68758;BME280;55747;51.998;4.466;2023-05-10T01:10:46;56759.03;;;-144.48;100.00
68758;BME280;55747;51.998;4.466;2023-05-10T01:13:14;56721.81;;;-144.48;100.00
68758;BME280;55747;51.998;4.466;2023-05-10T01:15:43;56721.81;;;-144.48;100.00
68758;BME280;55747;51.998;4.466;2023-05-10T01:18:08;56725.94;;;-144.48;100.00
68758;BME280;55747;51.998;4.466;2023-05-10T01:20:35;56746.63;;;-144.48;100.00
68758;BME280;55747;51.998;4.466;2023-05-10T01:28:13;56754.91;;;-144.48;100.00
68758;BME280;55747;51.998;4.466;2023-05-10T01:36:16;56723.88;;;-144.48;100.00
68758;BME280;55747;51.998;4.466;2023-05-10T01:38:51;56767.31;;;-144.48;100.00
68758;BME280;55747;51.998;4.466;2023-05-10T01:46:36;56748.69;;;-144.48;100.00
68758;BME280;55747;51.998;4.466;2023-05-10T01:49:02;56750.75;;;-144.48;100.00
68758;BME280;55747;51.998;4.466;2023-05-10T01:51:31;56761.09;;;-144.48;100.00
68758;BME280;55747;51.998;4.466;2023-05-10T01:54:02;56719.75;;;-144.48;100.00
68758;BME280;55747;51.998;4.466;2023-05-10T01:56:28;56734.22;;;-144.48;100.00
68758;BME280;55747;51.998;4.466;2023-05-10T01:58:55;56790.03;;;-144.48;100.00
68758;BME280;55747;51.998;4.466;2023-05-10T02:01:20;56761.09;;;-144.48;100.00
68758;BME280;55747;51.998;4.466;2023-05-10T02:03:46;56740.41;;;-144.48;100.00
68758;BME280;55747;51.998;4.466;2023-05-10T02:06:12;56717.69;;;-144.48;100.00
68758;BME280;55747;51.998;4.466;2023-05-10T02:08:38;56713.53;;;-144.48;100.00
68758;BME280;55747;51.998;4.466;2023-05-10T02:11:05;56748.69;;;-144.48;100.00
68758;BME280;55747;51.998;4.466;2023-05-10T02:13:31;56738.34;;;-144.48;100.00
68758;BME280;55747;51.998;4.466;2023-05-10T02:15:57;56730.09;;;-144.48;100.00
68758;BME280;55747;51.998;4.466;2023-05-10T02:18:24;56740.41;;;-144.48;100.00
68758;BME280;55747;51.998;4.466;2023-05-10T02:20:51;56748.69;;;-144.48;100.00
68758;BME280;55747;51.998;4.466;2023-05-10T02:23:18;56759.03;;;-144.48;100.00
68758;BME280;55747;51.998;4.466;2023-05-10T02:25:43;56736.28;;;-144.48;100.00
68758;BME280;55747;51.998;4.466;2023-05-10T02:28:09;56738.34;;;-144.48;100.00
68758;BME280;55747;51.998;4.466;2023-05-10T02:30:36;56765.22;;;-144.48;100.00
68758;BME280;55747;51.998;4.466;2023-05-10T02:33:01;56765.22;;;-144.48;100.00
68758;BME280;55747;51.998;4.466;2023-05-10T02:35:28;56740.41;;;-144.48;100.00
68758;BME280;55747;51.998;4.466;2023-05-10T02:37:54;56746.63;;;-144.48;100.00
68758;BME280;55747;51.998;4.466;2023-05-10T02:40:19;56744.56;;;-144.48;100.00
68758;BME280;55747;51.998;4.466;2023-05-10T02:42:47;56761.09;;;-144.48;100.00
68758;BME280;55747;51.998;4.466;2023-05-10T02:45:13;56763.16;;;-144.48;100.00
68758;BME280;55747;51.998;4.466;2023-05-10T02:47:40;56744.56;;;-144.48;100.00
68758;BME280;55747;51.998;4.466;2023-05-10T02:50:05;56736.28;;;-144.48;100.00
68758;BME280;55747;51.998;4.466;2023-05-10T02:52:36;56756.97;;;-144.48;100.00
68758;BME280;55747;51.998;4.466;2023-05-10T02:55:03;56785.91;;;-144.48;100.00
68758;BME280;55747;51.998;4.466;2023-05-10T02:57:32;56748.69;;;-144.48;100.00
68758;BME280;55747;51.998;4.466;2023-05-10T02:59:58;56779.72;;;-144.48;100.00
68758;BME280;55747;51.998;4.466;2023-05-10T03:02:25;56754.91;;;-144.48;100.00
68758;BME280;55747;51.998;4.466;2023-05-10T03:04:50;56759.03;;;-144.48;100.00
68758;BME280;55747;51.998;4.466;2023-05-10T03:07:15;56759.03;;;-144.48;100.00
68758;BME280;55747;51.998;4.466;2023-05-10T03:09:44;56725.94;;;-144.48;100.00
68758;BME280;55747;51.998;4.466;2023-05-10T03:12:15;56723.88;;;-144.48;100.00
68758;BME280;55747;51.998;4.466;2023-05-10T03:17:46;56738.34;;;-144.48;100.00
68758;BME280;55747;51.998;4.466;2023-05-10T03:20:12;56732.16;;;-144.48;100.00
68758;BME280;55747;51.998;4.466;2023-05-10T03:22:44;56736.28;;;-144.48;100.00
68758;BME280;55747;51.998;4.466;2023-05-10T03:25:10;56717.69;;;-144.48;100.00
68758;BME280;55747;51.998;4.466;2023-05-10T03:27:37;56746.63;;;-144.48;100.00
68758;BME280;55747;51.998;4.466;2023-05-10T03:30:04;56740.41;;;-144.48;100.00
68758;BME280;55747;51.998;4.466;2023-05-10T03:32:30;56748.69;;;-144.48;100.00
68758;BME280;55747;51.998;4.466;2023-05-10T03:34:57;56752.81;;;-144.48;100.00
68758;BME280;55747;51.998;4.466;2023-05-10T03:37:22;56769.38;;;-144.48;100.00
68758;BME280;55747;51.998;4.466;2023-05-10T03:39:47;56775.56;;;-144.48;100.00
68758;BME280;55747;51.998;4.466;2023-05-10T03:42:13;56763.16;;;-144.48;100.00
68758;BME280;55747;51.998;4.466;2023-05-10T03:44:38;56754.91;;;-144.48;100.00
68758;BME280;55747;51.998;4.466;2023-05-10T03:47:04;56759.03;;;-144.48;100.00
68758;BME280;55747;51.998;4.466;2023-05-10T03:49:29;56761.09;;;-144.48;100.00
68758;BME280;55747;51.998;4.466;2023-05-10T03:51:54;56725.94;;;-144.48;100.00
68758;BME280;55747;51.998;4.466;2023-05-10T03:54:19;56744.56;;;-144.48;100.00
68758;BME280;55747;51.998;4.466;2023-05-10T03:56:45;56752.81;;;-144.48;100.00
68758;BME280;55747;51.998;4.466;2023-05-10T03:59:12;56763.16;;;-144.48;100.00
68758;BME280;55747;51.998;4.466;2023-05-10T04:01:38;56756.97;;;-144.48;100.00
68758;BME280;55747;51.998;4.466;2023-05-10T04:04:03;56769.38;;;-144.48;100.00
68758;BME280;55747;51.998;4.466;2023-05-10T04:06:28;56756.97;;;-144.48;100.00
68758;BME280;55747;51.998;4.466;2023-05-10T04:08:53;56748.69;;;-144.48;100.00
68758;BME280;55747;51.998;4.466;2023-05-10T04:11:18;56777.63;;;-144.48;100.00
68758;BME280;55747;51.998;4.466;2023-05-10T04:13:46;56777.63;;;-144.48;100.00
68758;BME280;55747;51.998;4.466;2023-05-10T04:16:14;56765.22;;;-144.48;100.00
68758;BME280;55747;51.998;4.466;2023-05-10T04:18:39;56775.56;;;-144.48;100.00
68758;BME280;55747;51.998;4.466;2023-05-10T04:21:10;56725.94;;;-144.48;100.00
68758;BME280;55747;51.998;4.466;2023-05-10T04:23:35;56763.16;;;-144.48;100.00
68758;BME280;55747;51.998;4.466;2023-05-10T04:26:01;56767.31;;;-144.48;100.00
68758;BME280;55747;51.998;4.466;2023-05-10T04:28:26;56748.69;;;-144.48;100.00
68758;BME280;55747;51.998;4.466;2023-05-10T04:30:52;56767.31;;;-144.48;100.00
68758;BME280;55747;51.998;4.466;2023-05-10T04:33:17;56777.63;;;-144.48;100.00
68758;BME280;55747;51.998;4.466;2023-05-10T04:35:42;56750.75;;;-144.48;100.00
68758;BME280;55747;51.998;4.466;2023-05-10T04:38:07;56775.56;;;-144.48;100.00
68758;BME280;55747;51.998;4.466;2023-05-10T04:40:32;56765.22;;;-144.48;100.00
68758;BME280;55747;51.998;4.466;2023-05-10T04:46:16;56740.41;;;-144.48;100.00
68758;BME280;55747;51.998;4.466;2023-05-10T04:48:43;56763.16;;;-144.48;100.00
68758;BME280;55747;51.998;4.466;2023-05-10T04:51:09;56763.16;;;-144.48;100.00
68758;BME280;55747;51.998;4.466;2023-05-10T04:53:34;56744.56;;;-144.48;100.00
68758;BME280;55747;51.998;4.466;2023-05-10T04:55:59;56781.78;;;-144.48;100.00
68758;BME280;55747;51.998;4.466;2023-05-10T04:58:24;56736.28;;;-144.48;100.00
68758;BME280;55747;51.998;4.466;2023-05-10T05:00:50;56773.50;;;-144.48;100.00
68758;BME280;55747;51.998;4.466;2023-05-10T05:03:15;56748.69;;;-144.48;100.00
68758;BME280;55747;51.998;4.466;2023-05-10T05:05:40;56761.09;;;-144.48;100.00
68758;BME280;55747;51.998;4.466;2023-05-10T05:08:05;56763.16;;;-144.48;100.00
68758;BME280;55747;51.998;4.466;2023-05-10T05:10:30;56736.28;;;-144.48;100.00
68758;BME280;55747;51.998;4.466;2023-05-10T05:12:56;56754.91;;;-144.48;100.00
68758;BME280;55747;51.998;4.466;2023-05-10T05:15:21;56705.28;;;-144.48;100.00
68758;BME280;55747;51.998;4.466;2023-05-10T05:17:46;56775.56;;;-144.48;100.00
68758;BME280;55747;51.998;4.466;2023-05-10T05:20:12;56765.22;;;-144.48;100.00
68758;BME280;55747;51.998;4.466;2023-05-10T05:22:38;56738.34;;;-144.48;100.00
68758;BME280;55747;51.998;4.466;2023-05-10T05:25:03;56761.09;;;-144.48;100.00
68758;BME280;55747;51.998;4.466;2023-05-10T05:27:28;56754.91;;;-144.48;100.00
68758;BME280;55747;51.998;4.466;2023-05-10T05:29:57;56767.31;;;-144.48;100.00
68758;BME280;55747;51.998;4.466;2023-05-10T05:35:09;56771.44;;;-144.48;100.00
68758;BME280;55747;51.998;4.466;2023-05-10T05:37:34;56725.94;;;-144.48;100.00
68758;BME280;55747;51.998;4.466;2023-05-10T05:40:00;56775.56;;;-144.48;100.00
68758;BME280;55747;51.998;4.466;2023-05-10T05:42:30;56750.75;;;-144.48;100.00
68758;BME280;55747;51.998;4.466;2023-05-10T05:44:58;56746.63;;;-144.48;100.00
68758;BME280;55747;51.998;4.466;2023-05-10T05:47:24;56744.56;;;-144.48;100.00
68758;BME280;55747;51.998;4.466;2023-05-10T05:49:49;56750.75;;;-144.48;100.00
68758;BME280;55747;51.998;4.466;2023-05-10T05:52:14;56767.31;;;-144.48;100.00
68758;BME280;55747;51.998;4.466;2023-05-10T05:54:39;56746.63;;;-144.48;100.00
68758;BME280;55747;51.998;4.466;2023-05-10T05:57:05;56781.78;;;-144.48;100.00
68758;BME280;55747;51.998;4.466;2023-05-10T05:59:30;56771.44;;;-144.48;100.00
68758;BME280;55747;51.998;4.466;2023-05-10T06:01:58;56754.91;;;-144.48;100.00
68758;BME280;55747;51.998;4.466;2023-05-10T06:04:23;56744.56;;;-144.48;100.00
68758;BME280;55747;51.998;4.466;2023-05-10T06:06:49;56723.88;;;-144.48;100.00
68758;BME280;55747;51.998;4.466;2023-05-10T06:09:14;56773.50;;;-144.48;100.00
68758;BME280;55747;51.998;4.466;2023-05-10T06:11:39;56756.97;;;-144.48;100.00
68758;BME280;55747;51.998;4.466;2023-05-10T06:14:04;56756.97;;;-144.48;100.00
68758;BME280;55747;51.998;4.466;2023-05-10T06:16:32;56738.34;;;-144.48;100.00
68758;BME280;55747;51.998;4.466;2023-05-10T06:18:57;56769.38;;;-144.48;100.00
68758;BME280;55747;51.998;4.466;2023-05-10T06:21:22;56734.22;;;-144.48;100.00
68758;BME280;55747;51.998;4.466;2023-05-10T06:23:47;56740.41;;;-144.48;100.00
68758;BME280;55747;51.998;4.466;2023-05-10T06:26:12;56732.16;;;-144.48;100.00
68758;BME280;55747;51.998;4.466;2023-05-10T06:28:38;56744.56;;;-144.48;100.00
68758;BME280;55747;51.998;4.466;2023-05-10T06:31:04;56734.22;;;-144.48;100.00
68758;BME280;55747;51.998;4.466;2023-05-10T06:33:30;56740.41;;;-144.48;100.00
68758;BME280;55747;51.998;4.466;2023-05-10T06:35:55;56705.28;;;-144.48;100.00
68758;BME280;55747;51.998;4.466;2023-05-10T06:38:20;56728.00;;;-144.48;100.00
68758;BME280;55747;51.998;4.466;2023-05-10T06:40:46;56732.16;;;-144.48;100.00
68758;BME280;55747;51.998;4.466;2023-05-10T06:43:11;56736.28;;;-144.48;100.00
68758;BME280;55747;51.998;4.466;2023-05-10T06:45:36;56769.38;;;-144.48;100.00
68758;BME280;55747;51.998;4.466;2023-05-10T06:48:02;56736.28;;;-144.48;100.00
68758;BME280;55747;51.998;4.466;2023-05-10T06:50:27;56723.88;;;-144.48;100.00
68758;BME280;55747;51.998;4.466;2023-05-10T06:52:52;56725.94;;;-144.48;100.00
68758;BME280;55747;51.998;4.466;2023-05-10T06:55:18;56723.88;;;-144.48;100.00
68758;BME280;55747;51.998;4.466;2023-05-10T07:00:49;56736.28;;;-144.48;100.00
68758;BME280;55747;51.998;4.466;2023-05-10T07:03:14;56759.03;;;-144.48;100.00
68758;BME280;55747;51.998;4.466;2023-05-10T07:05:40;56725.94;;;-144.48;100.00
68758;BME280;55747;51.998;4.466;2023-05-10T07:08:05;56721.81;;;-144.48;100.00
68758;BME280;55747;51.998;4.466;2023-05-10T07:13:37;56732.16;;;-144.48;100.00
68758;BME280;55747;51.998;4.466;2023-05-10T07:16:10;56742.50;;;-144.48;100.00
68758;BME280;55747;51.998;4.466;2023-05-10T07:18:38;56711.47;;;-144.48;100.00
68758;BME280;55747;51.998;4.466;2023-05-10T07:21:08;56748.69;;;-144.48;100.00
68758;BME280;55747;51.998;4.466;2023-05-10T07:23:50;56715.59;;;-144.48;100.00
68758;BME280;55747;51.998;4.466;2023-05-10T07:26:16;56736.28;;;-144.48;100.00
68758;BME280;55747;51.998;4.466;2023-05-10T07:28:44;56707.34;;;-144.48;100.00
68758;BME280;55747;51.998;4.466;2023-05-10T07:31:15;56715.59;;;-144.48;100.00
68758;BME280;55747;51.998;4.466;2023-05-10T07:33:40;56723.88;;;-144.48;100.00
68758;BME280;55747;51.998;4.466;2023-05-10T07:36:06;56719.75;;;-144.48;100.00
68758;BME280;55747;51.998;4.466;2023-05-10T07:41:48;56717.69;;;-144.48;100.00
68758;BME280;55747;51.998;4.466;2023-05-10T07:44:13;56701.13;;;-144.48;100.00
68758;BME280;55747;51.998;4.466;2023-05-10T07:46:55;56709.41;;;-144.48;100.00
68758;BME280;55747;51.998;4.466;2023-05-10T07:52:16;56728.00;;;-144.48;100.00
68758;BME280;55747;51.998;4.466;2023-05-10T07:54:44;56728.00;;;-144.48;100.00
68758;BME280;55747;51.998;4.466;2023-05-10T07:57:10;56717.69;;;-144.48;100.00
68758;BME280;55747;51.998;4.466;2023-05-10T07:59:35;56748.69;;;-144.48;100.00
68758;BME280;55747;51.998;4.466;2023-05-10T08:02:00;56740.41;;;-144.48;100.00
68758;BME280;55747;51.998;4.466;2023-05-10T08:04:25;56744.56;;;-144.48;100.00
68758;BME280;55747;51.998;4.466;2023-05-10T08:06:51;56721.81;;;-144.48;100.00
68758;BME280;55747;51.998;4.466;2023-05-10T08:09:16;56686.66;;;-144.48;100.00
68758;BME280;55747;51.998;4.466;2023-05-10T08:11:42;56717.69;;;-144.48;100.00
68758;BME280;55747;51.998;4.466;2023-05-10T08:14:07;56713.53;;;-144.48;100.00
68758;BME280;55747;51.998;4.466;2023-05-10T08:16:33;56703.19;;;-144.48;100.00
68758;BME280;55747;51.998;4.466;2023-05-10T08:18:59;56732.16;;;-144.48;100.00
68758;BME280;55747;51.998;4.466;2023-05-10T08:21:24;56723.88;;;-144.48;100.00
68758;BME280;55747;51.998;4.466;2023-05-10T08:23:49;56699.06;;;-144.48;100.00
68758;BME280;55747;51.998;4.466;2023-05-10T08:26:15;56690.81;;;-144.48;100.00
68758;BME280;55747;51.998;4.466;2023-05-10T08:28:40;56699.06;;;-144.48;100.00
68758;BME280;55747;51.998;4.466;2023-05-10T08:31:05;56736.28;;;-144.48;100.00
68758;BME280;55747;51.998;4.466;2023-05-10T08:33:31;56756.97;;;-144.48;100.00
68758;BME280;55747;51.998;4.466;2023-05-10T08:35:59;56709.41;;;-144.48;100.00
68758;BME280;55747;51.998;4.466;2023-05-10T08:38:24;56701.13;;;-144.48;100.00
68758;BME280;55747;51.998;4.466;2023-05-10T08:40:50;56728.00;;;-144.48;100.00
68758;BME280;55747;51.998;4.466;2023-05-10T08:43:21;56705.28;;;-144.48;100.00
68758;BME280;55747;51.998;4.466;2023-05-10T08:45:46;56719.75;;;-144.48;100.00
68758;BME280;55747;51.998;4.466;2023-05-10T08:48:13;56740.41;;;-144.48;100.00
68758;BME280;55747;51.998;4.466;2023-05-10T08:50:39;56711.47;;;-144.48;100.00
68758;BME280;55747;51.998;4.466;2023-05-10T08:53:09;56721.81;;;-144.48;100.00
68758;BME280;55747;51.998;4.466;2023-05-10T08:55:34;56723.88;;;-144.48;100.00
68758;BME280;55747;51.998;4.466;2023-05-10T08:58:01;56707.34;;;-144.48;100.00
68758;BME280;55747;51.998;4.466;2023-05-10T09:00:27;56721.81;;;-144.48;100.00
68758;BME280;55747;51.998;4.466;2023-05-10T09:02:53;56705.28;;;-144.48;100.00
68758;BME280;55747;51.998;4.466;2023-05-10T09:05:18;56756.97;;;-144.48;100.00
68758;BME280;55747;51.998;4.466;2023-05-10T09:07:43;56701.13;;;-144.48;100.00
68758;BME280;55747;51.998;4.466;2023-05-10T09:10:09;56723.88;;;-144.48;100.00
68758;BME280;55747;51.998;4.466;2023-05-10T09:12:35;56684.59;;;-144.48;100.00
68758;BME280;55747;51.998;4.466;2023-05-10T09:15:01;56752.81;;;-144.48;100.00
68758;BME280;55747;51.998;4.466;2023-05-10T09:17:26;56721.81;;;-144.48;100.00
68758;BME280;55747;51.998;4.466;2023-05-10T09:19:59;56721.81;;;-144.48;100.00
68758;BME280;55747;51.998;4.466;2023-05-10T09:22:25;56730.09;;;-144.48;100.00
68758;BME280;55747;51.998;4.466;2023-05-10T09:25:03;56728.00;;;-144.48;100.00
68758;BME280;55747;51.998;4.466;2023-05-10T09:27:28;56688.72;;;-144.48;100.00
68758;BME280;55747;51.998;4.466;2023-05-10T09:29:53;56701.13;;;-144.48;100.00
68758;BME280;55747;51.998;4.466;2023-05-10T09:32:20;56721.81;;;-144.48;100.00
68758;BME280;55747;51.998;4.466;2023-05-10T09:34:45;56725.94;;;-144.48;100.00
68758;BME280;55747;51.998;4.466;2023-05-10T09:37:10;56713.53;;;-144.48;100.00
68758;BME280;55747;51.998;4.466;2023-05-10T09:39:37;56680.47;;;-144.48;100.00
68758;BME280;55747;51.998;4.466;2023-05-10T09:42:03;56715.59;;;-144.48;100.00
68758;BME280;55747;51.998;4.466;2023-05-10T09:44:29;56678.41;;;-144.48;100.00
68758;BME280;55747;51.998;4.466;2023-05-10T09:46:55;56663.91;;;-144.48;100.00
68758;BME280;55747;51.998;4.466;2023-05-10T09:49:20;56697.00;;;-144.48;100.00
68758;BME280;55747;51.998;4.466;2023-05-10T09:51:46;56668.06;;;-144.48;100.00
68758;BME280;55747;51.998;4.466;2023-05-10T09:54:15;56661.84;;;-144.48;100.00
68758;BME280;55747;51.998;4.466;2023-05-10T09:56:41;56647.38;;;-144.48;100.00
68758;BME280;55747;51.998;4.466;2023-05-10T09:59:06;56668.06;;;-144.48;100.00
68758;BME280;55747;51.998;4.466;2023-05-10T10:01:33;56657.72;;;-144.48;100.00
68758;BME280;55747;51.998;4.466;2023-05-10T10:03:58;56684.59;;;-144.48;100.00
68758;BME280;55747;51.998;4.466;2023-05-10T10:06:23;56653.59;;;-144.48;100.00
68758;BME280;55747;51.998;4.466;2023-05-10T10:08:49;56616.38;;;-144.48;100.00
68758;BME280;55747;51.998;4.466;2023-05-10T10:11:15;56657.72;;;-144.48;100.00
68758;BME280;55747;51.998;4.466;2023-05-10T10:13:41;56678.41;;;-144.48;100.00
68758;BME280;55747;51.998;4.466;2023-05-10T10:16:06;56634.97;;;-144.48;92.12
68758;BME280;55747;51.998;4.466;2023-05-10T10:18:33;56618.44;;;-144.48;88.84
68758;BME280;55747;51.998;4.466;2023-05-10T10:20:58;56659.78;;;-144.48;89.37
68758;BME280;55747;51.998;4.466;2023-05-10T10:23:24;56637.03;;;-144.48;90.85
68758;BME280;55747;51.998;4.466;2023-05-10T10:25:49;56599.81;;;-144.48;92.61
68758;BME280;55747;51.998;4.466;2023-05-10T10:28:32;56680.47;;;-144.48;94.00
68758;BME280;55747;51.998;4.466;2023-05-10T10:31:00;56616.38;;;-144.48;98.13
68758;BME280;55747;51.998;4.466;2023-05-10T10:36:00;56657.72;;;-144.48;94.26
68758;BME280;55747;51.998;4.466;2023-05-10T10:38:25;56643.25;;;-144.48;95.59
68758;BME280;55747;51.998;4.466;2023-05-10T10:41:03;56661.84;;;-144.48;96.19
68758;BME280;55747;51.998;4.466;2023-05-10T10:43:32;56630.84;;;-144.48;100.00
68758;BME280;55747;51.998;4.466;2023-05-10T10:46:14;56661.84;;;-144.48;100.00
68758;BME280;55747;51.998;4.466;2023-05-10T10:48:40;56645.31;;;-144.48;100.00
68758;BME280;55747;51.998;4.466;2023-05-10T10:51:06;56651.50;;;-144.48;95.86
68758;BME280;55747;51.998;4.466;2023-05-10T10:53:31;56653.59;;;-144.48;92.30
68758;BME280;55747;51.998;4.466;2023-05-10T10:56:09;56649.44;;;-144.48;94.01
68758;BME280;55747;51.998;4.466;2023-05-10T10:58:36;56647.38;;;-144.48;98.37
68758;BME280;55747;51.998;4.466;2023-05-10T11:01:17;56647.38;;;-144.48;95.62
68758;BME280;55747;51.998;4.466;2023-05-10T11:06:33;56657.72;;;-144.48;89.39
68758;BME280;55747;51.998;4.466;2023-05-10T11:08:58;56620.50;;;-144.48;87.32
68758;BME280;55747;51.998;4.466;2023-05-10T11:11:24;56634.97;;;-144.48;85.65
68758;BME280;55747;51.998;4.466;2023-05-10T11:13:49;56668.06;;;-144.48;88.44
68758;BME280;55747;51.998;4.466;2023-05-10T11:16:18;56692.88;;;-144.48;93.03
68758;BME280;55747;51.998;4.466;2023-05-10T11:19:03;56641.19;;;-144.48;97.54
68758;BME280;55747;51.998;4.466;2023-05-10T11:21:32;56659.78;;;-144.48;97.71
68758;BME280;55747;51.998;4.466;2023-05-10T11:23:58;56645.31;;;-144.48;96.88
68758;BME280;55747;51.998;4.466;2023-05-10T11:26:24;56645.31;;;-144.48;94.60
68758;BME280;55747;51.998;4.466;2023-05-10T11:28:51;56634.97;;;-144.48;91.83
68758;BME280;55747;51.998;4.466;2023-05-10T11:31:18;56641.19;;;-144.48;88.59
68758;BME280;55747;51.998;4.466;2023-05-10T11:33:47;56630.84;;;-144.48;88.40
68758;BME280;55747;51.998;4.466;2023-05-10T11:36:17;56608.09;;;-144.48;88.13
68758;BME280;55747;51.998;4.466;2023-05-10T11:38:43;56610.16;;;-144.48;85.49
68758;BME280;55747;51.998;4.466;2023-05-10T11:41:11;56637.03;;;-144.48;84.60
68758;BME280;55747;51.998;4.466;2023-05-10T11:43:38;56620.50;;;-144.48;84.25
68758;BME280;55747;51.998;4.466;2023-05-10T11:46:04;56610.16;;;-144.48;82.96
68758;BME280;55747;51.998;4.466;2023-05-10T11:48:30;56601.91;;;-144.48;85.65
68758;BME280;55747;51.998;4.466;2023-05-10T11:50:56;56637.03;;;-144.48;86.10
68758;BME280;55747;51.998;4.466;2023-05-10T11:53:22;56659.78;;;-144.48;85.56
68758;BME280;55747;51.998;4.466;2023-05-10T11:55:48;56637.03;;;-144.48;87.87
68758;BME280;55747;51.998;4.466;2023-05-10T11:58:13;56647.38;;;-144.48;90.57
68758;BME280;55747;51.998;4.466;2023-05-10T12:00:38;56647.38;;;-144.48;89.58
68758;BME280;55747;51.998;4.466;2023-05-10T12:03:04;56643.25;;;-144.48;91.08
68758;BME280;55747;51.998;4.466;2023-05-10T12:05:31;56643.25;;;-144.48;91.82
68758;BME280;55747;51.998;4.466;2023-05-10T12:08:10;56630.84;;;-144.48;94.21
68758;BME280;55747;51.998;4.466;2023-05-10T12:10:35;56643.25;;;-144.48;93.70
68758;BME280;55747;51.998;4.466;2023-05-10T12:13:00;56670.13;;;-144.48;97.33
68758;BME280;55747;51.998;4.466;2023-05-10T12:15:25;56701.13;;;-144.48;100.00
68758;BME280;55747;51.998;4.466;2023-05-10T12:17:52;56639.13;;;-144.48;100.00
68758;BME280;55747;51.998;4.466;2023-05-10T12:20:21;56645.31;;;-144.48;100.00
68758;BME280;55747;51.998;4.466;2023-05-10T12:22:49;56651.50;;;-144.48;100.00
68758;BME280;55747;51.998;4.466;2023-05-10T12:25:14;56682.53;;;-144.48;100.00
68758;BME280;55747;51.998;4.466;2023-05-10T12:27:40;56649.44;;;-144.48;100.00
68758;BME280;55747;51.998;4.466;2023-05-10T12:30:06;56645.31;;;-144.48;100.00
68758;BME280;55747;51.998;4.466;2023-05-10T12:32:41;56653.59;;;-144.48;100.00
68758;BME280;55747;51.998;4.466;2023-05-10T12:35:06;56643.25;;;-144.48;100.00
68758;BME280;55747;51.998;4.466;2023-05-10T12:37:32;56663.91;;;-144.48;100.00
68758;BME280;55747;51.998;4.466;2023-05-10T12:40:00;56628.78;;;-144.48;100.00
68758;BME280;55747;51.998;4.466;2023-05-10T12:42:26;56645.31;;;-144.48;100.00
68758;BME280;55747;51.998;4.466;2023-05-10T12:44:54;56684.59;;;-144.48;100.00
68758;BME280;55747;51.998;4.466;2023-05-10T12:47:19;56634.97;;;-144.48;100.00
68758;BME280;55747;51.998;4.466;2023-05-10T12:49:44;56668.06;;;-144.48;99.24
68758;BME280;55747;51.998;4.466;2023-05-10T12:52:10;56655.66;;;-144.48;99.00
68758;BME280;55747;51.998;4.466;2023-05-10T12:54:35;56647.38;;;-144.48;96.56
68758;BME280;55747;51.998;4.466;2023-05-10T12:57:00;56624.63;;;-144.48;91.91
68758;BME280;55747;51.998;4.466;2023-05-10T12:59:26;56597.75;;;-144.48;86.32
68758;BME280;55747;51.998;4.466;2023-05-10T13:01:51;56618.44;;;-144.48;85.43
68758;BME280;55747;51.998;4.466;2023-05-10T13:04:16;56616.38;;;-144.48;84.89
68758;BME280;55747;51.998;4.466;2023-05-10T13:06:41;56626.72;;;-144.48;86.43
68758;BME280;55747;51.998;4.466;2023-05-10T13:09:06;56672.19;;;-144.48;90.30
68758;BME280;55747;51.998;4.466;2023-05-10T13:11:32;56645.31;;;-144.48;92.18